Time;durP1;ratioP1;P1;durP2;ratioP2;P2;SDS_P1;SDS_P2;PMS_P1;PMS_P2;Temp;Humidity;BMP_temperature;BMP_pressure;BME280_temperature;BME280_humidity;BME280_pressure;Samples;Min_cycle;Max_cycle;Signal;HPM_P1;HPM_P2
2021/04/23 00:00:41;;;;;;;4.43;2.03;;;;;;;;;;5117163;27;20015;-52
2021/04/23 00:03:21;;;;;;;4.80;1.40;;;;;;;;;;5131218;27;20027;-47
2021/04/23 00:05:47;;;;;;;3.27;0.90;;;;;;;;;;5127229;27;20034;-50
2021/04/23 00:08:14;;;;;;;6.33;1.50;;;;;;;;;;5128930;27;20058;-52
2021/04/23 00:10:39;;;;;;;3.57;1.00;;;;;;;;;;5121196;27;20024;-50
2021/04/23 00:13:05;;;;;;;5.97;1.60;;;;;;;;;;5111035;28;20372;-48
2021/04/23 00:15:30;;;;;;;5.57;1.70;;;;;;;;;;5127028;27;20181;-52
2021/04/23 00:17:55;;;;;;;6.43;1.70;;;;;;;;;;5133590;27;20023;-47
2021/04/23 00:20:22;;;;;;;6.97;1.97;;;;;;;;;;5123757;27;20073;-51
2021/04/23 00:22:47;;;;;;;3.67;1.93;;;;;;;;;;5111467;27;20031;-46
2021/04/23 00:25:14;;;;;;;8.10;1.97;;;;;;;;;;5124450;27;20035;-50
2021/04/23 00:27:41;;;;;;;7.87;1.77;;;;;;;;;;5113603;28;20023;-49
2021/04/23 00:30:07;;;;;;;3.87;2.03;;;;;;;;;;5131573;27;20470;-51
2021/04/23 00:32:50;;;;;;;6.07;1.80;;;;;;;;;;5130664;27;20424;-49
2021/04/23 00:35:16;;;;;;;4.87;2.03;;;;;;;;;;5133457;27;20367;-51
2021/04/23 00:37:46;;;;;;;5.67;2.00;;;;;;;;;;5132509;27;20025;-46
2021/04/23 00:40:12;;;;;;;5.83;1.80;;;;;;;;;;5133356;27;20402;-52
2021/04/23 00:42:37;;;;;;;5.57;1.87;;;;;;;;;;5120483;27;20026;-52
2021/04/23 00:45:03;;;;;;;6.07;2.20;;;;;;;;;;5122630;27;20026;-47
2021/04/23 00:47:28;;;;;;;5.00;2.13;;;;;;;;;;5121697;27;20034;-49
2021/04/23 00:49:54;;;;;;;8.23;2.30;;;;;;;;;;5126498;27;20031;-50
2021/04/23 00:52:19;;;;;;;5.70;1.70;;;;;;;;;;5130290;27;20462;-52
2021/04/23 00:54:44;;;;;;;6.90;2.07;;;;;;;;;;5127022;27;20103;-47
2021/04/23 00:57:10;;;;;;;4.40;1.67;;;;;;;;;;5117361;27;20048;-48
2021/04/23 00:59:35;;;;;;;8.20;2.00;;;;;;;;;;5114468;27;20077;-50
2021/04/23 01:02:04;;;;;;;5.67;2.23;;;;;;;;;;5123779;27;20022;-52
2021/04/23 01:04:30;;;;;;;6.87;2.07;;;;;;;;;;5114667;27;20062;-49
2021/04/23 01:06:56;;;;;;;7.70;2.13;;;;;;;;;;5118145;27;20080;-53
2021/04/23 01:09:22;;;;;;;9.80;1.90;;;;;;;;;;5124230;27;20027;-48
2021/04/23 01:11:49;;;;;;;4.60;1.50;;;;;;;;;;5112799;27;20027;-47
2021/04/23 01:14:14;;;;;;;5.00;1.73;;;;;;;;;;5131458;27;20034;-53
2021/04/23 01:16:40;;;;;;;5.20;1.47;;;;;;;;;;5117768;27;20471;-46
2021/04/23 01:19:07;;;;;;;5.27;1.10;;;;;;;;;;5112927;28;20016;-46
2021/04/23 01:21:32;;;;;;;6.13;2.13;;;;;;;;;;5125525;28;20482;-47
2021/04/23 01:23:58;;;;;;;5.03;1.90;;;;;;;;;;5133467;27;20141;-50
2021/04/23 01:26:30;;;;;;;8.47;2.13;;;;;;;;;;5132257;27;20051;-47
2021/04/23 01:28:56;;;;;;;7.77;1.70;;;;;;;;;;5119339;27;20019;-51
2021/04/23 01:31:24;;;;;;;3.97;1.87;;;;;;;;;;5123851;28;20042;-48
2021/04/23 01:33:51;;;;;;;6.60;2.03;;;;;;;;;;5120782;28;20065;-48
2021/04/23 01:36:17;;;;;;;7.87;2.20;;;;;;;;;;5130045;28;20054;-50
2021/04/23 01:38:44;;;;;;;6.07;1.50;;;;;;;;;;5133505;27;20019;-47
2021/04/23 01:41:09;;;;;;;2.70;1.00;;;;;;;;;;5121910;27;20458;-48
2021/04/23 01:43:35;;;;;;;7.10;1.87;;;;;;;;;;5128488;28;20051;-53
2021/04/23 01:46:00;;;;;;;6.73;2.17;;;;;;;;;;5126137;27;20059;-49
2021/04/23 01:48:26;;;;;;;5.77;2.00;;;;;;;;;;5117701;27;20097;-49
2021/04/23 01:50:51;;;;;;;3.63;1.47;;;;;;;;;;5122717;28;20482;-49
2021/04/23 01:53:16;;;;;;;8.23;2.13;;;;;;;;;;5130061;27;20047;-49
2021/04/23 01:55:43;;;;;;;8.80;2.37;;;;;;;;;;5130745;27;20050;-51
2021/04/23 01:58:09;;;;;;;6.33;2.07;;;;;;;;;;5127845;27;20029;-51
2021/04/23 02:00:35;;;;;;;11.03;2.60;;;;;;;;;;5132604;27;20023;-52
2021/04/23 02:03:03;;;;;;;6.83;2.40;;;;;;;;;;5112975;27;20073;-51
2021/04/23 02:05:29;;;;;;;5.87;2.10;;;;;;;;;;5113015;28;20088;-50
2021/04/23 02:07:54;;;;;;;7.73;2.33;;;;;;;;;;5114711;28;20027;-48
2021/04/23 02:10:21;;;;;;;4.70;1.77;;;;;;;;;;5119302;27;20048;-51
2021/04/23 02:12:47;;;;;;;5.90;2.67;;;;;;;;;;5130681;27;20010;-45
2021/04/23 02:15:13;;;;;;;1.13;0.50;;;;;;;;;;5135009;27;20072;-48
2021/04/23 02:17:39;;;;;;;4.73;1.77;;;;;;;;;;5123966;27;20015;-48
2021/04/23 02:20:06;;;;;;;6.67;2.10;;;;;;;;;;5132591;27;20141;-50
2021/04/23 02:22:31;;;;;;;4.63;2.30;;;;;;;;;;5113429;27;20020;-52
2021/04/23 02:24:56;;;;;;;6.83;1.93;;;;;;;;;;5116064;28;20470;-51
2021/04/23 02:27:22;;;;;;;5.07;1.90;;;;;;;;;;5116114;27;20499;-47
2021/04/23 02:29:47;;;;;;;6.67;2.30;;;;;;;;;;5121198;27;20019;-48
2021/04/23 02:32:12;;;;;;;6.67;2.50;;;;;;;;;;5129868;27;20089;-50
2021/04/23 02:34:38;;;;;;;9.40;2.43;;;;;;;;;;5122743;27;20034;-51
2021/04/23 02:37:03;;;;;;;9.50;2.23;;;;;;;;;;5115786;28;20094;-51
2021/04/23 02:39:28;;;;;;;6.03;2.67;;;;;;;;;;5128513;27;20019;-50
2021/04/23 02:41:54;;;;;;;7.43;2.80;;;;;;;;;;5132252;27;20023;-49
2021/04/23 02:44:20;;;;;;;9.73;3.10;;;;;;;;;;5122955;27;20032;-50
2021/04/23 02:46:45;;;;;;;7.37;2.47;;;;;;;;;;5126025;27;20473;-49
2021/04/23 02:49:11;;;;;;;8.63;2.90;;;;;;;;;;5116192;27;20529;-47
2021/04/23 02:51:40;;;;;;;6.17;2.30;;;;;;;;;;5124404;27;20055;-50
2021/04/23 02:54:05;;;;;;;7.30;2.53;;;;;;;;;;5117973;27;20035;-51
2021/04/23 02:56:31;;;;;;;5.83;2.20;;;;;;;;;;5129397;27;20032;-52
2021/04/23 02:58:56;;;;;;;8.70;3.00;;;;;;;;;;5135113;27;20094;-50
2021/04/23 03:01:23;;;;;;;6.33;2.37;;;;;;;;;;5132659;27;20019;-51
2021/04/23 03:03:48;;;;;;;7.13;2.97;;;;;;;;;;5135752;27;20482;-47
2021/04/23 03:06:14;;;;;;;7.17;2.37;;;;;;;;;;5129718;27;20153;-47
2021/04/23 03:08:39;;;;;;;6.73;3.37;;;;;;;;;;5124617;27;20023;-49
2021/04/23 03:11:10;;;;;;;8.60;2.70;;;;;;;;;;5116366;27;20034;-51
2021/04/23 03:13:35;;;;;;;6.63;3.40;;;;;;;;;;5115040;28;20089;-49
2021/04/23 03:16:01;;;;;;;10.50;4.00;;;;;;;;;;5120503;27;20069;-49
2021/04/23 03:18:29;;;;;;;8.80;3.97;;;;;;;;;;5125665;27;20015;-53
2021/04/23 03:20:55;;;;;;;6.37;3.33;;;;;;;;;;5122866;27;20015;-48
2021/04/23 03:23:21;;;;;;;7.17;3.23;;;;;;;;;;5132324;27;20007;-53
2021/04/23 03:25:47;;;;;;;5.03;2.13;;;;;;;;;;5135040;27;20033;-52
2021/04/23 03:28:12;;;;;;;11.73;3.90;;;;;;;;;;5135359;27;20031;-48
2021/04/23 03:30:40;;;;;;;8.47;4.27;;;;;;;;;;5123743;27;20041;-54
2021/04/23 03:33:06;;;;;;;7.87;3.27;;;;;;;;;;5116682;27;20406;-53
2021/04/23 03:35:31;;;;;;;9.83;3.93;;;;;;;;;;5130003;27;20026;-52
2021/04/23 03:37:57;;;;;;;7.80;3.43;;;;;;;;;;5133095;27;20057;-53
2021/04/23 03:40:24;;;;;;;11.43;3.90;;;;;;;;;;5134313;27;20023;-53
2021/04/23 03:42:49;;;;;;;11.03;4.17;;;;;;;;;;5123619;27;20087;-49
2021/04/23 03:45:15;;;;;;;9.20;3.53;;;;;;;;;;5125013;27;20062;-50
2021/04/23 03:47:41;;;;;;;11.23;4.00;;;;;;;;;;5127102;27;20024;-50
2021/04/23 03:50:08;;;;;;;8.93;3.63;;;;;;;;;;5128021;27;20018;-51
2021/04/23 03:52:33;;;;;;;9.40;3.40;;;;;;;;;;5122075;27;20118;-48
2021/04/23 03:54:59;;;;;;;7.53;3.40;;;;;;;;;;5134315;27;20107;-54
2021/04/23 03:57:25;;;;;;;11.37;3.87;;;;;;;;;;5133164;27;20027;-52
2021/04/23 03:59:50;;;;;;;9.23;3.83;;;;;;;;;;5121049;27;20034;-52
2021/04/23 04:02:15;;;;;;;11.13;4.07;;;;;;;;;;5111355;28;20412;-49
2021/04/23 04:04:40;;;;;;;6.30;3.93;;;;;;;;;;5115035;27;20437;-52
2021/04/23 04:07:06;;;;;;;8.63;3.30;;;;;;;;;;5128908;27;20061;-51
2021/04/23 04:09:31;;;;;;;10.73;4.90;;;;;;;;;;5127304;27;20062;-50
2021/04/23 04:11:56;;;;;;;9.00;4.20;;;;;;;;;;5110859;28;20023;-52
2021/04/23 04:14:21;;;;;;;12.10;4.80;;;;;;;;;;5125045;27;20102;-50
2021/04/23 04:16:46;;;;;;;10.00;4.23;;;;;;;;;;5115724;27;20026;-52
2021/04/23 04:19:12;;;;;;;13.83;4.90;;;;;;;;;;5116670;27;20015;-50
2021/04/23 04:21:37;;;;;;;14.97;4.70;;;;;;;;;;5112121;27;20098;-50
2021/04/23 04:24:02;;;;;;;10.73;4.23;;;;;;;;;;5133214;27;20015;-49
2021/04/23 04:26:28;;;;;;;7.90;3.70;;;;;;;;;;5115354;27;20019;-50
2021/04/23 04:28:53;;;;;;;4.97;3.07;;;;;;;;;;5122836;27;20015;-47
2021/04/23 04:31:18;;;;;;;9.53;5.10;;;;;;;;;;5118400;27;20068;-52
2021/04/23 04:33:43;;;;;;;12.77;4.07;;;;;;;;;;5133927;27;20073;-51
2021/04/23 04:36:08;;;;;;;9.77;4.00;;;;;;;;;;5128684;27;20068;-49
2021/04/23 04:38:34;;;;;;;5.20;1.60;;;;;;;;;;5113458;27;20047;-51
2021/04/23 04:40:59;;;;;;;10.90;5.17;;;;;;;;;;5115845;27;20044;-48
2021/04/23 04:43:25;;;;;;;12.53;3.53;;;;;;;;;;5129174;27;20051;-49
2021/04/23 04:45:50;;;;;;;16.83;5.60;;;;;;;;;;5121879;27;20015;-50
2021/04/23 04:48:16;;;;;;;13.00;5.37;;;;;;;;;;5128254;27;20102;-51
2021/04/23 04:50:44;;;;;;;15.77;5.53;;;;;;;;;;5132467;27;20481;-51
2021/04/23 04:53:10;;;;;;;13.53;5.57;;;;;;;;;;5129439;27;20047;-49
2021/04/23 04:55:37;;;;;;;21.90;5.60;;;;;;;;;;5123017;27;20043;-51
2021/04/23 04:58:03;;;;;;;15.73;4.43;;;;;;;;;;5119865;27;20011;-52
2021/04/23 05:00:29;;;;;;;13.70;6.47;;;;;;;;;;5127461;27;20385;-52
2021/04/23 05:02:54;;;;;;;12.47;5.90;;;;;;;;;;5130385;27;20506;-49
2021/04/23 05:05:20;;;;;;;5.57;2.63;;;;;;;;;;5122072;27;20051;-50
2021/04/23 05:07:45;;;;;;;15.57;5.67;;;;;;;;;;5113076;28;20027;-53
2021/04/23 05:10:11;;;;;;;14.27;6.30;;;;;;;;;;5129708;27;20110;-53
2021/04/23 05:12:37;;;;;;;15.03;6.53;;;;;;;;;;5130518;27;20011;-49
2021/04/23 05:15:03;;;;;;;12.50;5.77;;;;;;;;;;5129818;27;20027;-48
2021/04/23 05:17:28;;;;;;;15.20;6.20;;;;;;;;;;5133559;27;20502;-51
2021/04/23 05:19:53;;;;;;;10.17;5.47;;;;;;;;;;5132424;27;20051;-49
2021/04/23 05:22:19;;;;;;;12.47;5.87;;;;;;;;;;5129452;27;20023;-51
2021/04/23 05:24:44;;;;;;;12.50;4.70;;;;;;;;;;5121295;28;20050;-47
2021/04/23 05:27:09;;;;;;;13.33;6.43;;;;;;;;;;5113545;28;20035;-49
2021/04/23 05:29:34;;;;;;;12.13;5.60;;;;;;;;;;5122079;28;20024;-51
2021/04/23 05:32:01;;;;;;;10.47;4.37;;;;;;;;;;5125095;28;20019;-46
2021/04/23 05:34:27;;;;;;;13.33;4.87;;;;;;;;;;5129380;27;20456;-53
2021/04/23 05:36:52;;;;;;;11.17;6.00;;;;;;;;;;5121795;27;20137;-49
2021/04/23 05:39:17;;;;;;;10.10;5.47;;;;;;;;;;5124314;28;20015;-49
2021/04/23 05:41:43;;;;;;;10.57;3.70;;;;;;;;;;5129680;28;20085;-53
2021/04/23 05:44:08;;;;;;;10.23;4.60;;;;;;;;;;5125059;28;20035;-52
2021/04/23 05:46:34;;;;;;;12.00;5.70;;;;;;;;;;5120327;27;20111;-53
2021/04/23 05:48:59;;;;;;;7.97;4.93;;;;;;;;;;5116561;27;20012;-50
2021/04/23 05:51:24;;;;;;;12.23;5.33;;;;;;;;;;5120376;27;20745;-54
2021/04/23 05:53:49;;;;;;;13.57;6.07;;;;;;;;;;5133392;27;20012;-52
2021/04/23 05:56:15;;;;;;;8.43;4.07;;;;;;;;;;5119127;27;20015;-53
2021/04/23 05:58:40;;;;;;;4.93;2.13;;;;;;;;;;5135359;27;20019;-48
2021/04/23 06:01:05;;;;;;;10.00;3.00;;;;;;;;;;5114430;27;20011;-48
2021/04/23 06:03:31;;;;;;;11.43;4.07;;;;;;;;;;5133912;27;20023;-51
2021/04/23 06:05:56;;;;;;;9.47;5.00;;;;;;;;;;5136074;27;20011;-51
2021/04/23 06:08:22;;;;;;;11.37;3.87;;;;;;;;;;5135699;27;20442;-49
2021/04/23 06:10:48;;;;;;;7.23;3.30;;;;;;;;;;5136506;27;20025;-48
2021/04/23 06:13:13;;;;;;;10.70;4.03;;;;;;;;;;5129260;27;20058;-49
2021/04/23 06:15:40;;;;;;;4.73;2.10;;;;;;;;;;5135604;27;20023;-53
2021/04/23 06:18:05;;;;;;;13.03;4.40;;;;;;;;;;5125531;27;20418;-50
2021/04/23 06:20:33;;;;;;;10.67;4.37;;;;;;;;;;5115531;27;20102;-51
2021/04/23 06:22:59;;;;;;;9.87;4.50;;;;;;;;;;5122807;27;20019;-53
2021/04/23 06:25:24;;;;;;;8.97;3.70;;;;;;;;;;5134319;27;20504;-52
2021/04/23 06:27:51;;;;;;;3.70;1.47;;;;;;;;;;5124710;27;20027;-54
2021/04/23 06:30:37;;;;;;;7.13;2.77;;;;;;;;;;5115683;28;20117;-51
2021/04/23 06:33:08;;;;;;;8.90;5.10;;;;;;;;;;5116693;27;20027;-49
2021/04/23 06:35:34;;;;;;;13.00;5.07;;;;;;;;;;5129250;27;20500;-52
2021/04/23 06:37:59;;;;;;;8.13;4.20;;;;;;;;;;5135212;27;20023;-52
2021/04/23 06:40:24;;;;;;;14.17;3.43;;;;;;;;;;5135897;27;20047;-52
2021/04/23 06:42:49;;;;;;;9.50;4.80;;;;;;;;;;5130966;27;20019;-51
2021/04/23 06:45:17;;;;;;;9.73;4.27;;;;;;;;;;5120777;27;20042;-48
2021/04/23 06:47:43;;;;;;;7.27;2.77;;;;;;;;;;5135481;27;20015;-48
2021/04/23 06:50:09;;;;;;;10.97;3.80;;;;;;;;;;5135620;27;20501;-52
2021/04/23 06:52:35;;;;;;;10.73;4.07;;;;;;;;;;5133055;27;20062;-52
2021/04/23 06:55:00;;;;;;;7.73;4.07;;;;;;;;;;5133818;27;20019;-50
2021/04/23 06:57:25;;;;;;;12.50;2.73;;;;;;;;;;5117398;27;20015;-52
2021/04/23 06:59:51;;;;;;;12.82;3.80;;;;;;;;;;5135016;27;20023;-47
2021/04/23 07:02:16;;;;;;;8.97;3.30;;;;;;;;;;5133092;27;20057;-52
2021/04/23 07:04:41;;;;;;;3.30;1.53;;;;;;;;;;5133623;27;20071;-49
2021/04/23 07:07:06;;;;;;;10.40;3.63;;;;;;;;;;5131446;27;20020;-51
2021/04/23 07:09:32;;;;;;;5.30;2.30;;;;;;;;;;5117644;27;20022;-51
2021/04/23 07:11:57;;;;;;;7.57;4.40;;;;;;;;;;5131615;27;20377;-50
2021/04/23 07:14:22;;;;;;;5.23;2.57;;;;;;;;;;5123617;27;20086;-50
2021/04/23 07:16:48;;;;;;;10.48;3.90;;;;;;;;;;5126149;27;20027;-52
2021/04/23 07:19:13;;;;;;;8.20;2.73;;;;;;;;;;5132039;27;20413;-50
2021/04/23 07:21:38;;;;;;;6.43;4.13;;;;;;;;;;5129188;27;20019;-50
2021/04/23 07:24:04;;;;;;;7.55;3.72;;;;;;;;;;5134446;27;20440;-52
2021/04/23 07:26:29;;;;;;;4.50;2.25;;;;;;;;;;5134343;27;20438;-52
2021/04/23 07:28:55;;;;;;;7.57;4.03;;;;;;;;;;5133208;27;20046;-52
2021/04/23 07:31:20;;;;;;;6.47;3.45;;;;;;;;;;5112700;27;20110;-51
2021/04/23 07:33:45;;;;;;;7.35;4.38;;;;;;;;;;5125013;27;20467;-52
2021/04/23 07:36:11;;;;;;;7.07;3.42;;;;;;;;;;5131155;27;20051;-53
2021/04/23 07:38:36;;;;;;;6.10;2.33;;;;;;;;;;5131240;27;20018;-52
2021/04/23 07:41:01;;;;;;;7.03;3.50;;;;;;;;;;5127995;27;20007;-51
2021/04/23 07:43:27;;;;;;;4.95;2.17;;;;;;;;;;5132333;27;20378;-50
2021/04/23 07:45:53;;;;;;;7.68;3.08;;;;;;;;;;5131202;27;20024;-53
2021/04/23 07:48:19;;;;;;;8.00;4.75;;;;;;;;;;5133360;27;20110;-50
2021/04/23 07:50:44;;;;;;;9.32;4.95;;;;;;;;;;5125653;27;20102;-52
2021/04/23 07:53:10;;;;;;;5.53;3.67;;;;;;;;;;5131269;27;20518;-53
2021/04/23 07:55:35;;;;;;;5.55;3.05;;;;;;;;;;5133735;27;20027;-50
2021/04/23 07:58:00;;;;;;;10.48;5.70;;;;;;;;;;5125605;27;20035;-51
2021/04/23 08:00:26;;;;;;;10.88;5.20;;;;;;;;;;5134295;27;20014;-50
2021/04/23 08:02:52;;;;;;;7.82;3.75;;;;;;;;;;5129302;27;20025;-50
2021/04/23 08:05:17;;;;;;;9.05;5.13;;;;;;;;;;5132399;27;20570;-53
2021/04/23 08:07:44;;;;;;;8.00;3.58;;;;;;;;;;5129906;27;20050;-53
2021/04/23 08:10:10;;;;;;;7.45;3.92;;;;;;;;;;5116842;27;20072;-50
2021/04/23 08:12:36;;;;;;;8.70;3.92;;;;;;;;;;5112091;27;20416;-48
2021/04/23 08:15:01;;;;;;;9.15;5.38;;;;;;;;;;5118266;27;20031;-51
2021/04/23 08:17:27;;;;;;;11.70;5.65;;;;;;;;;;5120430;27;20020;-52
2021/04/23 08:19:52;;;;;;;10.85;4.38;;;;;;;;;;5114107;28;20016;-50
2021/04/23 08:22:17;;;;;;;12.80;5.60;;;;;;;;;;5123816;27;20015;-53
2021/04/23 08:24:43;;;;;;;11.18;4.53;;;;;;;;;;5132131;27;20084;-50
2021/04/23 08:27:08;;;;;;;6.50;3.45;;;;;;;;;;5124869;27;20049;-51
2021/04/23 08:29:33;;;;;;;10.70;3.47;;;;;;;;;;5118751;27;20015;-51
2021/04/23 08:31:58;;;;;;;5.43;2.25;;;;;;;;;;5118544;27;20019;-51
2021/04/23 08:34:24;;;;;;;6.63;4.13;;;;;;;;;;5117775;27;20357;-50
2021/04/23 08:36:49;;;;;;;7.18;4.10;;;;;;;;;;5121170;27;20020;-51
2021/04/23 08:39:14;;;;;;;4.68;2.40;;;;;;;;;;5125825;27;20014;-52
2021/04/23 08:41:40;;;;;;;8.05;3.03;;;;;;;;;;5110523;27;20057;-49
2021/04/23 08:44:06;;;;;;;6.28;3.92;;;;;;;;;;5125129;27;20019;-54
2021/04/23 08:46:34;;;;;;;3.38;2.15;;;;;;;;;;5126973;27;20436;-53
2021/04/23 08:49:00;;;;;;;7.22;2.45;;;;;;;;;;5119197;27;20118;-53
2021/04/23 08:51:26;;;;;;;3.58;2.22;;;;;;;;;;5127104;27;20592;-53
2021/04/23 08:53:52;;;;;;;3.70;2.20;;;;;;;;;;5135735;27;20037;-52
2021/04/23 08:56:17;;;;;;;8.27;4.30;;;;;;;;;;5132893;27;20351;-51
2021/04/23 08:58:43;;;;;;;4.85;1.90;;;;;;;;;;5132967;27;20022;-53
2021/04/23 09:01:08;;;;;;;9.70;3.67;;;;;;;;;;5130698;27;20053;-50
2021/04/23 09:03:33;;;;;;;4.72;2.45;;;;;;;;;;5123860;27;20027;-51
2021/04/23 09:06:08;;;;;;;5.45;2.38;;;;;;;;;;5132202;27;20027;-49
2021/04/23 09:08:34;;;;;;;7.22;2.75;;;;;;;;;;5132742;27;20038;-49
2021/04/23 09:11:12;;;;;;;6.22;3.08;;;;;;;;;;5130302;27;20088;-49
2021/04/23 09:13:47;;;;;;;5.25;2.25;;;;;;;;;;5130627;27;20020;-48
2021/04/23 09:16:12;;;;;;;5.13;1.38;;;;;;;;;;5116094;27;20063;-53
2021/04/23 09:18:37;;;;;;;5.55;3.28;;;;;;;;;;5112381;28;20120;-51
2021/04/23 09:21:03;;;;;;;3.40;1.70;;;;;;;;;;5112621;28;20157;-53
2021/04/23 09:23:29;;;;;;;6.75;2.35;;;;;;;;;;5131568;27;20031;-53
2021/04/23 09:25:56;;;;;;;3.70;1.65;;;;;;;;;;5132700;27;20019;-52
2021/04/23 09:28:33;;;;;;;5.18;2.15;;;;;;;;;;5120764;27;20015;-49
2021/04/23 09:31:18;;;;;;;5.40;1.83;;;;;;;;;;5118280;28;20022;-50
2021/04/23 09:33:51;;;;;;;3.95;1.00;;;;;;;;;;5117781;28;20425;-50
2021/04/23 09:36:26;;;;;;;5.63;1.58;;;;;;;;;;5112357;28;20023;-51
2021/04/23 09:39:04;;;;;;;5.88;2.08;;;;;;;;;;5131446;28;20023;-52
2021/04/23 09:41:29;;;;;;;6.75;2.33;;;;;;;;;;5129283;27;20322;-50
2021/04/23 09:43:55;;;;;;;6.63;2.58;;;;;;;;;;5126198;28;20094;-52
2021/04/23 09:46:33;;;;;;;6.03;1.52;;;;;;;;;;5120353;28;20103;-53
2021/04/23 09:49:14;;;;;;;6.53;1.17;;;;;;;;;;5119475;28;20027;-52
2021/04/23 09:51:39;;;;;;;4.13;1.60;;;;;;;;;;5129771;27;20050;-50
2021/04/23 09:54:11;;;;;;;2.30;0.80;;;;;;;;;;5128579;28;20028;-51
2021/04/23 09:56:36;;;;;;;2.22;0.77;;;;;;;;;;5124693;28;20031;-51
2021/04/23 09:59:13;;;;;;;3.72;1.17;;;;;;;;;;5116733;28;20592;-52
2021/04/23 10:01:55;;;;;;;3.90;1.05;;;;;;;;;;5128113;28;20023;-50
2021/04/23 10:04:22;;;;;;;3.67;0.80;;;;;;;;;;5132242;27;20106;-54
2021/04/23 10:06:47;;;;;;;5.00;1.10;;;;;;;;;;5127383;27;20019;-50
2021/04/23 10:09:12;;;;;;;2.72;0.95;;;;;;;;;;5120595;28;20647;-49
2021/04/23 10:11:41;;;;;;;2.83;1.05;;;;;;;;;;5115673;27;20023;-51
2021/04/23 10:14:10;;;;;;;4.85;1.63;;;;;;;;;;5121053;27;20018;-53
2021/04/23 10:16:39;;;;;;;2.97;1.15;;;;;;;;;;5120321;27;20445;-52
2021/04/23 10:19:04;;;;;;;4.43;1.90;;;;;;;;;;5128842;28;20094;-52
2021/04/23 10:21:29;;;;;;;2.72;0.93;;;;;;;;;;5125828;28;20442;-53
2021/04/23 10:23:55;;;;;;;2.92;1.05;;;;;;;;;;5127361;28;20417;-51
2021/04/23 10:26:20;;;;;;;7.15;1.73;;;;;;;;;;5130181;28;20031;-51
2021/04/23 10:28:46;;;;;;;3.90;1.50;;;;;;;;;;5127729;28;20023;-47
2021/04/23 10:31:11;;;;;;;5.25;0.98;;;;;;;;;;5127699;27;20038;-45
2021/04/23 10:33:37;;;;;;;4.00;1.63;;;;;;;;;;5132703;27;20535;-51
2021/04/23 10:36:02;;;;;;;4.57;1.80;;;;;;;;;;5132814;27;20015;-49
2021/04/23 10:38:30;;;;;;;5.45;1.23;;;;;;;;;;5120373;27;20022;-50
2021/04/23 10:40:58;;;;;;;3.65;1.45;;;;;;;;;;5119453;27;20030;-49
2021/04/23 10:43:23;;;;;;;1.83;0.63;;;;;;;;;;5113305;27;20011;-51
2021/04/23 10:45:57;;;;;;;3.90;1.70;;;;;;;;;;5128915;27;20083;-51
2021/04/23 10:48:24;;;;;;;4.25;1.42;;;;;;;;;;5135033;27;20043;-52
2021/04/23 10:50:50;;;;;;;3.35;1.42;;;;;;;;;;5128036;27;20024;-51
2021/04/23 10:53:17;;;;;;;5.00;1.48;;;;;;;;;;5123366;27;20067;-50
2021/04/23 10:55:42;;;;;;;1.98;0.65;;;;;;;;;;5117222;27;20031;-50
2021/04/23 10:58:09;;;;;;;4.03;1.42;;;;;;;;;;5131894;27;20022;-53
2021/04/23 11:00:34;;;;;;;4.93;1.65;;;;;;;;;;5132967;27;20093;-53
2021/04/23 11:03:18;;;;;;;2.92;1.20;;;;;;;;;;5130843;27;20452;-52
2021/04/23 11:05:45;;;;;;;4.63;2.22;;;;;;;;;;5116191;27;20102;-47
2021/04/23 11:08:10;;;;;;;5.00;1.73;;;;;;;;;;5119583;27;20015;-51
2021/04/23 11:10:58;;;;;;;3.60;2.13;;;;;;;;;;5128804;27;20042;-49
2021/04/23 11:13:24;;;;;;;4.43;0.90;;;;;;;;;;5115943;27;20023;-53
2021/04/23 11:16:08;;;;;;;3.05;1.50;;;;;;;;;;5122777;27;20030;-51
2021/04/23 11:18:33;;;;;;;6.43;1.92;;;;;;;;;;5117549;27;20106;-49
2021/04/23 11:21:18;;;;;;;5.30;1.67;;;;;;;;;;5115945;27;20470;-50
2021/04/23 11:24:02;;;;;;;5.50;2.58;;;;;;;;;;5115818;27;20019;-47
2021/04/23 11:26:46;;;;;;;5.15;2.13;;;;;;;;;;5116248;27;20042;-54
2021/04/23 11:29:12;;;;;;;3.50;1.77;;;;;;;;;;5115201;27;20023;-48
2021/04/23 11:31:56;;;;;;;4.18;0.82;;;;;;;;;;5127618;27;20431;-52
2021/04/23 11:34:33;;;;;;;4.10;1.73;;;;;;;;;;5123779;27;20019;-51
2021/04/23 11:37:03;;;;;;;4.63;1.98;;;;;;;;;;5120253;27;20019;-51
2021/04/23 11:39:33;;;;;;;4.32;2.00;;;;;;;;;;5132267;27;20133;-50
2021/04/23 11:42:18;;;;;;;6.57;1.73;;;;;;;;;;5125271;27;20022;-51
2021/04/23 11:44:46;;;;;;;3.53;1.85;;;;;;;;;;5119652;27;20032;-52
2021/04/23 11:47:12;;;;;;;4.72;2.00;;;;;;;;;;5114781;28;20077;-51
2021/04/23 11:49:38;;;;;;;3.15;2.10;;;;;;;;;;5120932;27;20027;-53
2021/04/23 11:52:04;;;;;;;4.40;1.48;;;;;;;;;;5118173;27;20055;-48
2021/04/23 11:54:35;;;;;;;3.83;1.77;;;;;;;;;;5119846;27;20412;-48
2021/04/23 11:57:01;;;;;;;2.80;1.30;;;;;;;;;;5117563;27;20040;-51
2021/04/23 11:59:26;;;;;;;3.30;2.08;;;;;;;;;;5125858;27;20043;-53
2021/04/23 12:01:52;;;;;;;5.93;2.03;;;;;;;;;;5120548;27;20030;-53
2021/04/23 12:04:36;;;;;;;5.25;2.25;;;;;;;;;;5121118;27;20015;-49
2021/04/23 12:07:01;;;;;;;5.25;2.03;;;;;;;;;;5114418;27;20019;-51
2021/04/23 12:09:26;;;;;;;6.32;2.70;;;;;;;;;;5112931;27;20403;-52
2021/04/23 12:12:01;;;;;;;4.35;2.15;;;;;;;;;;5122558;27;20034;-52
2021/04/23 12:14:53;;;;;;;4.68;2.78;;;;;;;;;;5119868;27;20095;-50
2021/04/23 12:17:19;;;;;;;6.38;2.42;;;;;;;;;;5129868;27;20031;-53
2021/04/23 12:19:44;;;;;;;4.53;2.40;;;;;;;;;;5123934;27;20023;-53
2021/04/23 12:22:10;;;;;;;5.82;2.08;;;;;;;;;;5122182;27;20482;-52
2021/04/23 12:24:35;;;;;;;3.38;2.10;;;;;;;;;;5118297;27;20056;-49
2021/04/23 12:27:01;;;;;;;4.78;1.90;;;;;;;;;;5123180;27;20082;-52
2021/04/23 12:29:26;;;;;;;5.13;2.30;;;;;;;;;;5121256;27;20011;-52
2021/04/23 12:31:52;;;;;;;6.30;2.67;;;;;;;;;;5129787;27;20071;-52
2021/04/23 12:34:17;;;;;;;7.60;4.03;;;;;;;;;;5124684;27;20320;-53
2021/04/23 12:36:44;;;;;;;6.25;2.83;;;;;;;;;;5125138;27;20574;-49
2021/04/23 12:39:10;;;;;;;4.75;1.27;;;;;;;;;;5119456;27;20463;-49
2021/04/23 12:41:39;;;;;;;3.65;2.00;;;;;;;;;;5108161;28;20019;-53
2021/04/23 12:44:06;;;;;;;1.88;1.13;;;;;;;;;;5117567;27;20100;-50
2021/04/23 12:46:33;;;;;;;6.10;1.90;;;;;;;;;;5113108;28;20419;-50
2021/04/23 12:49:06;;;;;;;4.90;2.28;;;;;;;;;;5111780;28;20356;-54
2021/04/23 12:51:31;;;;;;;3.08;1.42;;;;;;;;;;5113017;27;20484;-52
2021/04/23 12:53:57;;;;;;;4.00;1.60;;;;;;;;;;5112642;27;20034;-52
2021/04/23 12:56:24;;;;;;;5.15;2.88;;;;;;;;;;5118758;27;20023;-52
2021/04/23 12:58:49;;;;;;;8.35;2.47;;;;;;;;;;5121961;27;20019;-53
2021/04/23 13:01:15;;;;;;;7.95;2.80;;;;;;;;;;5124121;27;20024;-48
2021/04/23 13:03:42;;;;;;;5.55;2.58;;;;;;;;;;5130667;27;20147;-50
2021/04/23 13:06:08;;;;;;;4.50;2.45;;;;;;;;;;5111813;28;20024;-51
2021/04/23 13:08:33;;;;;;;6.57;2.50;;;;;;;;;;5128055;27;20027;-52
2021/04/23 13:10:59;;;;;;;4.88;3.25;;;;;;;;;;5129712;27;20026;-49
2021/04/23 13:13:25;;;;;;;5.63;3.47;;;;;;;;;;5113502;27;20023;-49
2021/04/23 13:15:51;;;;;;;6.85;3.17;;;;;;;;;;5131694;27;20374;-49
2021/04/23 13:18:17;;;;;;;6.93;3.40;;;;;;;;;;5130933;27;20019;-48
2021/04/23 13:20:52;;;;;;;5.95;2.92;;;;;;;;;;5129059;27;20008;-52
2021/04/23 13:23:28;;;;;;;4.85;2.53;;;;;;;;;;5124974;27;20019;-52
2021/04/23 13:25:55;;;;;;;4.03;2.30;;;;;;;;;;5121966;27;20354;-49
2021/04/23 13:28:21;;;;;;;6.80;2.67;;;;;;;;;;5120512;27;20046;-51
2021/04/23 13:30:47;;;;;;;2.03;1.00;;;;;;;;;;5117736;28;20022;-53
2021/04/23 13:33:26;;;;;;;3.65;2.10;;;;;;;;;;5122077;28;20016;-52
2021/04/23 13:35:53;;;;;;;3.38;2.53;;;;;;;;;;5117217;28;20060;-50
2021/04/23 13:38:33;;;;;;;6.53;3.45;;;;;;;;;;5127826;27;20026;-52
2021/04/23 13:41:12;;;;;;;7.40;3.03;;;;;;;;;;5128488;27;20464;-52
2021/04/23 13:43:38;;;;;;;5.13;2.97;;;;;;;;;;5121677;28;20458;-51
2021/04/23 13:46:06;;;;;;;4.50;2.85;;;;;;;;;;5125755;27;20532;-52
2021/04/23 13:48:32;;;;;;;5.90;3.35;;;;;;;;;;5112817;28;20027;-53
2021/04/23 13:51:01;;;;;;;6.03;2.55;;;;;;;;;;5125083;28;20023;-49
2021/04/23 13:53:34;;;;;;;7.30;3.38;;;;;;;;;;5125827;27;20118;-52
2021/04/23 13:56:00;;;;;;;6.40;2.80;;;;;;;;;;5113644;28;20023;-51
2021/04/23 13:58:25;;;;;;;3.92;3.17;;;;;;;;;;5124781;28;20116;-49
2021/04/23 14:00:54;;;;;;;2.83;2.03;;;;;;;;;;5115480;27;20051;-52
2021/04/23 14:03:20;;;;;;;3.97;2.58;;;;;;;;;;5122021;28;20523;-52
2021/04/23 14:05:45;;;;;;;8.52;2.05;;;;;;;;;;5126843;27;20023;-51
2021/04/23 14:08:10;;;;;;;3.63;2.15;;;;;;;;;;5132121;27;20022;-47
2021/04/23 14:10:37;;;;;;;4.18;2.50;;;;;;;;;;5126600;27;20106;-48
2021/04/23 14:13:02;;;;;;;3.35;2.22;;;;;;;;;;5123591;27;20140;-55
2021/04/23 14:15:28;;;;;;;3.72;1.88;;;;;;;;;;5133678;27;20019;-52
2021/04/23 14:17:53;;;;;;;4.93;1.92;;;;;;;;;;5135494;27;20019;-52
2021/04/23 14:20:18;;;;;;;3.80;1.95;;;;;;;;;;5135767;27;20015;-49
2021/04/23 14:22:43;;;;;;;4.43;2.08;;;;;;;;;;5118413;27;20019;-51
2021/04/23 14:25:09;;;;;;;4.43;2.40;;;;;;;;;;5116763;27;20023;-54
2021/04/23 14:27:34;;;;;;;5.38;3.33;;;;;;;;;;5134798;27;20022;-52
2021/04/23 14:29:59;;;;;;;4.28;2.50;;;;;;;;;;5132362;27;20023;-51
2021/04/23 14:32:25;;;;;;;6.00;2.40;;;;;;;;;;5132090;27;20029;-52
2021/04/23 14:34:50;;;;;;;6.47;3.35;;;;;;;;;;5118539;27;20031;-51
2021/04/23 14:37:17;;;;;;;8.15;2.92;;;;;;;;;;5115399;28;20050;-52
2021/04/23 14:39:43;;;;;;;5.20;2.85;;;;;;;;;;5131591;27;20053;-54